createdAt,value
2017-07-08T00:01:30.768Z,101747.09
2017-07-08T00:03:58.698Z,101743.03
2017-07-08T00:06:26.613Z,101741.20
2017-07-08T00:08:54.529Z,101746.59
2017-07-08T00:11:22.490Z,101747.47
2017-07-08T00:13:50.405Z,101745.63
2017-07-08T00:16:18.309Z,101747.89
2017-07-08T00:18:46.234Z,101745.63
2017-07-08T00:21:14.160Z,101742.50
2017-07-08T00:23:42.119Z,101740.23
2017-07-08T00:26:10.047Z,101742.01
2017-07-08T00:28:37.961Z,101737.47
2017-07-08T00:31:05.868Z,101732.99
2017-07-08T00:33:35.540Z,101725.76
2017-07-08T00:36:03.487Z,101734.23
2017-07-08T00:38:31.399Z,101736.02
2017-07-08T00:40:59.319Z,101734.72
2017-07-08T00:43:27.269Z,101731.59
2017-07-08T00:45:55.194Z,101732.02
2017-07-08T00:48:23.148Z,101733.80
2017-07-08T00:50:51.064Z,101732.94
2017-07-08T00:53:19.002Z,101735.59
2017-07-08T00:55:46.913Z,101736.98
2017-07-08T00:58:14.832Z,101734.23
2017-07-08T01:00:42.786Z,101734.67
2017-07-08T01:03:10.721Z,101738.29
2017-07-08T01:05:38.644Z,101734.19
2017-07-08T01:08:06.565Z,101734.23
2017-07-08T01:10:34.471Z,101730.13
2017-07-08T01:13:02.400Z,101726.08
2017-07-08T01:15:30.318Z,101729.22
2017-07-08T01:17:58.226Z,101731.05
2017-07-08T01:20:26.129Z,101726.52
2017-07-08T01:22:54.068Z,101723.81
2017-07-08T01:25:22.013Z,101721.59
2017-07-08T01:27:49.930Z,101717.50
2017-07-08T01:30:17.878Z,101718.91
2017-07-08T01:32:45.818Z,101712.58
2017-07-08T01:35:13.765Z,101715.77
2017-07-08T01:37:41.721Z,101717.12
2017-07-08T01:40:09.641Z,101715.28
2017-07-08T01:42:37.557Z,101712.64
2017-07-08T01:45:05.731Z,101718.91
2017-07-08T01:47:33.660Z,101713.98
2017-07-08T01:50:01.621Z,101711.72
2017-07-08T01:52:29.535Z,101707.72
2017-07-08T01:54:57.458Z,101703.67
2017-07-08T01:57:25.392Z,101697.84
2017-07-08T01:59:53.308Z,101695.14
2017-07-08T02:02:21.245Z,101691.09
2017-07-08T02:04:49.157Z,101697.41
2017-07-08T02:07:17.078Z,101701.45
2017-07-08T02:09:45.000Z,101695.24
2017-07-08T02:12:12.919Z,101695.24
2017-07-08T02:14:40.862Z,101695.14
2017-07-08T02:17:08.771Z,101683.95
2017-07-08T02:19:36.699Z,101694.33
2017-07-08T02:22:04.621Z,101694.81
2017-07-08T02:24:32.587Z,101693.46
2017-07-08T02:27:00.547Z,101693.95
2017-07-08T02:29:28.473Z,101699.40
2017-07-08T02:31:56.388Z,101705.23
2017-07-08T02:34:24.300Z,101702.97
2017-07-08T02:36:52.227Z,101707.98
2017-07-08T02:39:20.160Z,101712.47
2017-07-08T02:41:48.085Z,101719.22
2017-07-08T02:44:16.019Z,101716.09
2017-07-08T02:46:43.954Z,101713.39
2017-07-08T02:49:11.876Z,101718.35
2017-07-08T02:51:39.809Z,101719.70
2017-07-08T02:54:07.741Z,101719.70
2017-07-08T02:56:35.647Z,101708.91
2017-07-08T02:59:03.561Z,101705.34
2017-07-08T03:01:31.485Z,101702.20
2017-07-08T03:03:59.393Z,101704.91
2017-07-08T03:06:27.306Z,101701.29
2017-07-08T03:08:55.218Z,101698.11
2017-07-08T03:11:23.170Z,101693.19
2017-07-08T03:13:51.089Z,101693.67
2017-07-08T03:16:19.010Z,101698.64
2017-07-08T03:18:46.930Z,101698.64
2017-07-08T03:21:14.860Z,101708.52
2017-07-08T03:23:42.796Z,101709.44
2017-07-08T03:26:10.701Z,101709.44
2017-07-08T03:28:38.633Z,101701.34
2017-07-08T03:31:06.555Z,101703.66
2017-07-08T03:33:34.484Z,101700.91
2017-07-08T03:36:02.430Z,101692.86
2017-07-08T03:38:30.359Z,101689.73
2017-07-08T03:40:58.402Z,101685.73
2017-07-08T03:43:26.348Z,101687.57
2017-07-08T03:45:54.269Z,101691.14
2017-07-08T03:48:22.210Z,101692.05
2017-07-08T03:50:50.142Z,101688.48
2017-07-08T03:53:18.045Z,101686.27
2017-07-08T03:55:45.949Z,101678.66
2017-07-08T03:58:13.866Z,101679.95
2017-07-08T04:00:41.800Z,101680.45
2017-07-08T04:03:09.715Z,101680.45
2017-07-08T04:05:37.631Z,101675.05
2017-07-08T04:08:05.536Z,101683.14
2017-07-08T04:10:33.442Z,101679.14
2017-07-08T04:13:01.409Z,101679.09
2017-07-08T04:15:29.337Z,101675.05
2017-07-08T04:17:57.252Z,101665.65
2017-07-08T04:20:25.181Z,101666.56
2017-07-08T04:22:53.084Z,101672.45
2017-07-08T04:25:21.013Z,101672.45
2017-07-08T04:27:48.925Z,101681.90
2017-07-08T04:30:16.853Z,101686.00
2017-07-08T04:32:44.781Z,101680.17
2017-07-08T04:35:12.733Z,101670.04
2017-07-08T04:37:40.705Z,101676.55
2017-07-08T04:40:08.629Z,101676.61
2017-07-08T04:42:36.528Z,101677.95
2017-07-08T04:45:04.435Z,101679.31
2017-07-08T04:47:32.375Z,101683.41
2017-07-08T04:50:00.313Z,101678.88
2017-07-08T04:52:28.216Z,101679.31
2017-07-08T04:54:56.129Z,101675.31
2017-07-08T04:57:24.036Z,101677.09
2017-07-08T04:59:51.965Z,101673.53
2017-07-08T05:02:19.911Z,101664.94
2017-07-08T05:04:47.932Z,101665.81
2017-07-08T05:07:15.844Z,101666.73
2017-07-08T05:09:43.780Z,101670.29
2017-07-08T05:12:11.734Z,101672.98
2017-07-08T05:14:39.709Z,101675.63
2017-07-08T05:17:07.669Z,101669.38
2017-07-08T05:19:35.595Z,101667.59
2017-07-08T05:22:03.524Z,101667.11
2017-07-08T05:24:31.449Z,101661.22
2017-07-08T05:26:59.509Z,101673.37
2017-07-08T05:29:27.844Z,101668.45
2017-07-08T05:31:56.224Z,101672.88
2017-07-08T05:34:24.201Z,101679.25
2017-07-08T05:36:52.136Z,101676.94
2017-07-08T05:39:20.102Z,101672.88
2017-07-08T05:41:48.040Z,101677.85
2017-07-08T05:44:15.998Z,101674.72
2017-07-08T05:46:43.926Z,101673.42
2017-07-08T05:49:11.868Z,101673.85
2017-07-08T05:51:39.858Z,101683.73
2017-07-08T05:54:07.795Z,101676.55
2017-07-08T05:56:35.753Z,101677.95
2017-07-08T05:59:03.856Z,101684.27
2017-07-08T06:01:32.042Z,101690.11
2017-07-08T06:04:00.017Z,101691.83
2017-07-08T06:06:27.990Z,101688.65
2017-07-08T06:08:55.935Z,101692.64
2017-07-08T06:11:23.913Z,101694.42
2017-07-08T06:13:51.854Z,101701.18
2017-07-08T06:16:19.773Z,101701.24
2017-07-08T06:18:47.711Z,101703.55
2017-07-08T06:21:15.653Z,101708.03
2017-07-08T06:23:43.874Z,101708.16
2017-07-08T06:26:11.914Z,101711.19
2017-07-08T06:28:40.492Z,101722.50
2017-07-08T06:31:08.411Z,101734.84
2017-07-08T06:33:36.352Z,101736.59
2017-07-08T06:36:04.309Z,101743.28
2017-07-08T06:38:32.303Z,101737.83
2017-07-08T06:41:00.266Z,101727.31
2017-07-08T06:43:28.194Z,101717.80
2017-07-08T06:45:56.138Z,101712.14
2017-07-08T06:48:24.102Z,101715.97
2017-07-08T06:50:52.032Z,101718.77
2017-07-08T06:53:19.979Z,101718.84
2017-07-08T06:55:47.906Z,101724.16
2017-07-08T06:58:15.834Z,101711.24
2017-07-08T07:00:43.787Z,101702.19
2017-07-08T07:03:11.715Z,101712.70
2017-07-08T07:05:39.645Z,101705.04
2017-07-08T07:08:07.634Z,101702.14
2017-07-08T07:10:35.775Z,101694.59
2017-07-08T07:13:05.093Z,101694.41
2017-07-08T07:15:33.099Z,101689.97
2017-07-08T07:18:01.027Z,101694.22
2017-07-08T07:20:28.971Z,101688.41
2017-07-08T07:22:56.941Z,101695.04
2017-07-08T07:25:24.889Z,101690.78
2017-07-08T07:27:52.826Z,101699.66
2017-07-08T07:30:20.787Z,101695.89
2017-07-08T07:32:48.717Z,101694.83
2017-07-08T07:35:16.763Z,101702.10
2017-07-08T07:37:44.745Z,101712.76
2017-07-08T07:40:12.674Z,101716.12
2017-07-08T07:42:40.595Z,101708.47
2017-07-08T07:45:08.517Z,101711.01
2017-07-08T07:47:36.453Z,101719.20
2017-07-08T07:50:04.419Z,101723.27
2017-07-08T07:52:32.366Z,101728.39
2017-07-08T07:55:00.311Z,101731.66
2017-07-08T07:57:28.265Z,101729.41
2017-07-08T07:59:56.200Z,101729.00
2017-07-08T08:02:24.128Z,101730.99
2017-07-08T08:04:52.090Z,101731.06
2017-07-08T08:07:20.017Z,101736.86
2017-07-08T08:09:47.947Z,101736.12
2017-07-08T08:12:15.894Z,101731.50
2017-07-08T08:14:43.821Z,101732.16
2017-07-08T08:17:11.800Z,101730.16
2017-07-08T08:19:39.726Z,101728.17
2017-07-08T08:22:07.673Z,101728.02
2017-07-08T08:24:35.634Z,101734.13
2017-07-08T08:27:03.554Z,101735.84
2017-07-08T08:29:31.498Z,101739.25
2017-07-08T08:31:59.439Z,101746.37
2017-07-08T08:34:27.369Z,101745.34
2017-07-08T08:36:55.547Z,101751.87
2017-07-08T08:39:23.665Z,101752.95
2017-07-08T08:41:51.783Z,101751.94
2017-07-08T08:44:19.735Z,101752.64
2017-07-08T08:46:47.841Z,101750.16
2017-07-08T08:49:15.776Z,101754.87
2017-07-08T08:51:43.715Z,101743.63
2017-07-08T08:54:11.629Z,101751.36
2017-07-08T08:56:39.557Z,101750.65
2017-07-08T08:59:07.502Z,101751.08
2017-07-08T09:01:35.450Z,101757.89
2017-07-08T09:04:03.361Z,101752.86
2017-07-08T09:06:31.298Z,101754.75
2017-07-08T09:08:59.407Z,101751.67
2017-07-08T09:11:27.515Z,101752.97
2017-07-08T09:13:55.526Z,101749.19
2017-07-08T09:16:23.446Z,101754.59
2017-07-08T09:18:51.395Z,101752.86
2017-07-08T09:21:19.325Z,101750.59
2017-07-08T09:23:47.265Z,101756.00
2017-07-08T09:26:15.180Z,101757.62
2017-07-08T09:28:43.229Z,101754.44
2017-07-08T09:31:11.185Z,101757.03
2017-07-08T09:33:39.130Z,101758.81
2017-07-08T09:36:07.125Z,101754.28
2017-07-08T09:38:35.050Z,101750.98
2017-07-08T09:41:02.969Z,101751.09
2017-07-08T09:43:30.900Z,101761.79
2017-07-08T09:45:58.819Z,101762.05
2017-07-08T09:48:26.751Z,101765.13
2017-07-08T09:50:54.685Z,101761.88
2017-07-08T09:53:22.649Z,101759.08
2017-07-08T09:55:50.757Z,101750.70
2017-07-08T09:58:18.677Z,101757.94
2017-07-08T10:00:46.666Z,101754.27
2017-07-08T10:03:15.071Z,101762.70
2017-07-08T10:05:42.990Z,101761.73
2017-07-08T10:08:10.998Z,101763.45
2017-07-08T10:10:38.917Z,101758.00
2017-07-08T10:13:06.842Z,101765.62
2017-07-08T10:15:34.793Z,101763.95
2017-07-08T10:18:02.730Z,101759.95
2017-07-08T10:20:30.666Z,101761.63
2017-07-08T10:22:58.624Z,101765.56
2017-07-08T10:25:26.607Z,101760.11
2017-07-08T10:27:54.530Z,101760.66
2017-07-08T10:30:22.450Z,101762.92
2017-07-08T10:32:50.386Z,101762.11
2017-07-08T10:35:18.319Z,101761.63
2017-07-08T10:37:46.310Z,101766.05
2017-07-08T10:40:14.267Z,101764.70
2017-07-08T10:42:42.218Z,101763.35
2017-07-08T10:45:10.147Z,101756.59
2017-07-08T10:47:38.083Z,101761.41
2017-07-08T10:50:06.054Z,101752.92
2017-07-08T10:52:34.021Z,101761.89
2017-07-08T10:55:01.958Z,101760.97
2017-07-08T10:57:29.905Z,101763.24
2017-07-08T10:59:57.826Z,101759.19
2017-07-08T11:02:25.798Z,101764.43
2017-07-08T11:04:53.746Z,101767.08
2017-07-08T11:07:21.687Z,101763.56
2017-07-08T11:09:49.606Z,101759.78
2017-07-08T11:12:17.598Z,101766.38
2017-07-08T11:14:45.577Z,101759.46
2017-07-08T11:17:13.490Z,101767.73
2017-07-08T11:19:41.428Z,101763.14
2017-07-08T11:22:09.396Z,101770.14
2017-07-08T11:24:37.526Z,101768.63
2017-07-08T11:27:05.494Z,101766.31
2017-07-08T11:29:34.544Z,101768.83
2017-07-08T11:32:02.490Z,101767.16
2017-07-08T11:34:30.562Z,101768.61
2017-07-08T11:36:58.490Z,101765.80
2017-07-08T11:39:26.527Z,101770.39
2017-07-08T11:41:54.466Z,101766.66
2017-07-08T11:44:23.601Z,101770.17
2017-07-08T11:46:51.524Z,101769.94
2017-07-08T11:49:19.478Z,101764.80
2017-07-08T11:51:47.408Z,101770.97
2017-07-08T11:54:15.392Z,101767.72
2017-07-08T11:56:43.387Z,101773.67
2017-07-08T11:59:11.408Z,101775.55
2017-07-08T12:01:39.362Z,101772.69
2017-07-08T12:04:07.298Z,101769.07
2017-07-08T12:06:35.254Z,101773.23
2017-07-08T12:09:03.227Z,101770.97
2017-07-08T12:11:31.171Z,101773.37
2017-07-08T12:13:59.087Z,101769.97
2017-07-08T12:16:27.017Z,101770.17
2017-07-08T12:18:54.952Z,101768.77
2017-07-08T12:21:22.889Z,101769.69
2017-07-08T12:23:50.856Z,101774.16
2017-07-08T12:26:18.789Z,101769.34
2017-07-08T12:28:47.533Z,101772.53
2017-07-08T12:31:15.468Z,101770.26
2017-07-08T12:33:44.230Z,101763.94
2017-07-08T12:36:12.244Z,101764.58
2017-07-08T12:38:40.197Z,101775.66
2017-07-08T12:41:08.259Z,101768.04
2017-07-08T12:43:36.211Z,101769.23
2017-07-08T12:46:04.154Z,101759.03
2017-07-08T12:48:32.115Z,101761.20
2017-07-08T12:51:00.563Z,101759.47
2017-07-08T12:53:28.532Z,101756.44
2017-07-08T12:55:56.499Z,101761.04
2017-07-08T12:58:24.413Z,101753.80
2017-07-08T13:00:52.357Z,101755.14
2017-07-08T13:03:20.293Z,101755.95
2017-07-08T13:05:48.282Z,101751.41
2017-07-08T13:08:16.210Z,101753.46
2017-07-08T13:10:44.188Z,101755.19
2017-07-08T13:13:12.174Z,101753.94
2017-07-08T13:15:40.102Z,101751.77
2017-07-08T13:18:08.059Z,101749.50
2017-07-08T13:20:36.007Z,101747.45
2017-07-08T13:23:03.961Z,101758.47
2017-07-08T13:25:33.910Z,101758.95
2017-07-08T13:28:01.872Z,101760.36
2017-07-08T13:30:29.850Z,101754.15
2017-07-08T13:32:59.601Z,101754.95
2017-07-08T13:35:27.566Z,101754.15
2017-07-08T13:37:55.559Z,101754.47
2017-07-08T13:40:23.567Z,101762.09
2017-07-08T13:42:51.537Z,101769.72
2017-07-08T13:45:19.505Z,101763.28
2017-07-08T13:47:47.444Z,101761.93
2017-07-08T13:50:15.411Z,101768.63
2017-07-08T13:52:43.333Z,101761.52
2017-07-08T13:55:11.286Z,101757.61
2017-07-08T13:57:39.234Z,101763.79
2017-07-08T14:00:07.165Z,101763.58
2017-07-08T14:02:35.134Z,101759.84
2017-07-08T14:05:03.066Z,101759.35
2017-07-08T14:07:30.994Z,101757.08
2017-07-08T14:09:58.980Z,101761.98
2017-07-08T14:12:27.282Z,101764.07
2017-07-08T14:14:55.247Z,101769.31
2017-07-08T14:17:23.181Z,101778.01
2017-07-08T14:19:51.117Z,101781.74
2017-07-08T14:22:19.041Z,101777.10
2017-07-08T14:24:46.966Z,101783.86
2017-07-08T14:27:14.957Z,101786.66
2017-07-08T14:29:42.910Z,101785.77
2017-07-08T14:32:10.874Z,101778.02
2017-07-08T14:34:38.842Z,101783.77
2017-07-08T14:37:06.772Z,101790.48
2017-07-08T14:39:34.746Z,101783.28
2017-07-08T14:42:02.669Z,101780.84
2017-07-08T14:44:30.632Z,101782.89
2017-07-08T14:46:58.574Z,101783.09
2017-07-08T14:49:26.902Z,101787.53
2017-07-08T14:51:54.870Z,101785.95
2017-07-08T14:54:22.936Z,101784.43
2017-07-08T14:56:50.877Z,101787.13
2017-07-08T14:59:18.793Z,101789.22
2017-07-08T15:01:46.718Z,101784.47
2017-07-08T15:04:14.705Z,101788.03
2017-07-08T15:06:42.641Z,101789.61
2017-07-08T15:09:10.572Z,101780.03
2017-07-08T15:11:38.507Z,101779.71
2017-07-08T15:14:06.433Z,101779.44
2017-07-08T15:16:34.417Z,101778.20
2017-07-08T15:19:03.998Z,101786.34
2017-07-08T15:21:31.928Z,101780.28
2017-07-08T15:23:59.878Z,101780.67
2017-07-08T15:26:27.819Z,101780.62
2017-07-08T15:28:55.765Z,101781.52
2017-07-08T15:31:23.702Z,101780.22
2017-07-08T15:33:51.622Z,101787.64
2017-07-08T15:36:19.674Z,101776.67
2017-07-08T15:38:47.607Z,101775.92
2017-07-08T15:41:15.562Z,101774.81
2017-07-08T15:43:43.515Z,101775.07
2017-07-08T15:46:11.430Z,101780.98
2017-07-08T15:48:39.375Z,101774.77
2017-07-08T15:51:07.310Z,101768.13
2017-07-08T15:53:35.261Z,101772.23
2017-07-08T15:56:03.252Z,101771.63
2017-07-08T15:58:31.170Z,101778.61
2017-07-08T16:00:59.091Z,101791.34
2017-07-08T16:03:27.018Z,101785.52
2017-07-08T16:05:55.002Z,101780.08
2017-07-08T16:08:22.925Z,101778.78
2017-07-08T16:10:50.863Z,101786.93
2017-07-08T16:13:18.794Z,101789.20
2017-07-08T16:15:46.763Z,101793.50
2017-07-08T16:18:14.708Z,101785.22
2017-07-08T16:20:42.626Z,101787.73
2017-07-08T16:23:10.583Z,101790.14
2017-07-08T16:25:38.506Z,101793.27
2017-07-08T16:28:06.453Z,101800.30
2017-07-08T16:30:34.399Z,101804.50
2017-07-08T16:33:02.311Z,101802.16
2017-07-08T16:35:30.265Z,101799.34
2017-07-08T16:37:58.184Z,101806.53
2017-07-08T16:40:26.115Z,101805.77
2017-07-08T16:42:54.047Z,101803.80
2017-07-08T16:45:21.987Z,101807.83
2017-07-08T16:47:49.937Z,101808.29
2017-07-08T16:50:17.893Z,101802.31
2017-07-08T16:52:45.821Z,101797.83
2017-07-08T16:55:31.340Z,101801.88
2017-07-08T16:57:59.261Z,101799.78
2017-07-08T17:00:27.219Z,101811.63
2017-07-08T17:02:55.175Z,101812.37
2017-07-08T17:05:23.101Z,101808.70
2017-07-08T17:07:51.021Z,101813.28
2017-07-08T17:10:18.936Z,101811.84
2017-07-08T17:12:46.883Z,101808.98
2017-07-08T17:15:14.831Z,101815.41
2017-07-08T17:17:42.767Z,101815.36
2017-07-08T17:20:10.734Z,101818.75
2017-07-08T17:22:38.652Z,101818.69
2017-07-08T17:25:06.615Z,101820.01
2017-07-08T17:27:34.547Z,101823.84
2017-07-08T17:30:02.491Z,101824.70
2017-07-08T17:32:30.455Z,101824.49
2017-07-08T17:34:58.391Z,101816.42
2017-07-08T17:37:26.366Z,101813.83
2017-07-08T17:39:54.328Z,101815.88
2017-07-08T17:42:22.257Z,101814.75
2017-07-08T17:44:50.206Z,101816.37
2017-07-08T17:47:18.130Z,101814.51
2017-07-08T17:49:46.096Z,101815.12
2017-07-08T17:52:14.013Z,101817.59
2017-07-08T17:54:41.948Z,101815.11
2017-07-08T17:57:09.882Z,101811.21
2017-07-08T17:59:38.030Z,101810.23
2017-07-08T18:02:06.004Z,101821.75
2017-07-08T18:04:33.953Z,101823.29
2017-07-08T18:07:02.262Z,101818.91
2017-07-08T18:09:30.196Z,101820.75
2017-07-08T18:11:58.164Z,101817.88
2017-07-08T18:14:26.118Z,101828.38
2017-07-08T18:16:54.062Z,101826.42
2017-07-08T18:19:21.997Z,101833.56
2017-07-08T18:21:49.940Z,101832.86
2017-07-08T18:24:17.869Z,101823.20
2017-07-08T18:26:45.847Z,101824.28
2017-07-08T18:29:13.785Z,101823.25
2017-07-08T18:31:41.736Z,101819.90
2017-07-08T18:34:09.668Z,101825.94
2017-07-08T18:36:37.658Z,101823.52
2017-07-08T18:39:05.612Z,101822.28
2017-07-08T18:41:33.558Z,101822.48
2017-07-08T18:44:01.478Z,101822.16
2017-07-08T18:46:29.468Z,101819.08
2017-07-08T18:48:57.394Z,101822.48
2017-07-08T18:51:25.369Z,101820.48
2017-07-08T18:53:53.339Z,101826.92
2017-07-08T18:56:21.262Z,101817.31
2017-07-08T18:58:49.244Z,101818.12
2017-07-08T19:01:17.189Z,101814.24
2017-07-08T19:03:45.187Z,101814.34
2017-07-08T19:06:13.130Z,101815.31
2017-07-08T19:08:41.082Z,101816.29
2017-07-08T19:11:09.030Z,101810.34
2017-07-08T19:13:36.983Z,101817.69
2017-07-08T19:16:04.955Z,101813.03
2017-07-08T19:18:32.941Z,101812.23
2017-07-08T19:21:00.863Z,101817.14
2017-07-08T19:23:28.828Z,101812.00
2017-07-08T19:25:56.759Z,101818.55
2017-07-08T19:28:24.699Z,101814.70
2017-07-08T19:30:52.630Z,101814.83
2017-07-08T19:33:20.566Z,101816.77
2017-07-08T19:35:48.498Z,101815.03
2017-07-08T19:38:16.426Z,101815.25
2017-07-08T19:40:44.391Z,101816.86
2017-07-08T19:43:12.326Z,101817.06
2017-07-08T19:45:40.268Z,101822.88
2017-07-08T19:48:08.208Z,101820.94
2017-07-08T19:50:36.174Z,101821.62
2017-07-08T19:53:04.139Z,101818.52
2017-07-08T19:55:32.070Z,101818.42
2017-07-08T19:58:00.069Z,101826.11
2017-07-08T20:00:28.020Z,101817.09
2017-07-08T20:02:55.947Z,101821.09
2017-07-08T20:05:23.882Z,101823.30
2017-07-08T20:07:51.838Z,101821.91
2017-07-08T20:10:19.766Z,101822.13
2017-07-08T20:12:47.708Z,101820.45
2017-07-08T20:15:15.635Z,101825.78
2017-07-08T20:17:43.583Z,101831.81
2017-07-08T20:20:11.930Z,101832.60
2017-07-08T20:22:39.878Z,101832.34
2017-07-08T20:25:07.810Z,101840.98
2017-07-08T20:27:35.752Z,101851.45
2017-07-08T20:30:03.697Z,101842.61
2017-07-08T20:32:31.642Z,101842.91
2017-07-08T20:34:59.600Z,101848.04
2017-07-08T20:37:27.788Z,101846.38
2017-07-08T20:39:55.717Z,101845.31
2017-07-08T20:42:23.646Z,101845.64
2017-07-08T20:44:51.595Z,101844.95
2017-07-08T20:47:19.561Z,101836.74
2017-07-08T20:49:47.473Z,101830.27
2017-07-08T20:52:15.403Z,101827.60
2017-07-08T20:54:43.336Z,101827.45
2017-07-08T20:57:11.253Z,101831.72
2017-07-08T20:59:39.249Z,101830.70
2017-07-08T21:02:07.166Z,101831.52
2017-07-08T21:04:35.112Z,101835.98
2017-07-08T21:07:03.041Z,101836.36
2017-07-08T21:09:30.980Z,101843.55
2017-07-08T21:11:58.943Z,101843.49
2017-07-08T21:14:26.886Z,101850.19
2017-07-08T21:16:54.798Z,101851.98
2017-07-08T21:19:22.742Z,101857.33
2017-07-08T21:21:50.673Z,101862.67
2017-07-08T21:24:18.645Z,101864.52
2017-07-08T21:26:46.574Z,101867.16
2017-07-08T21:29:14.510Z,101863.97
2017-07-08T21:31:42.443Z,101866.67
2017-07-08T21:34:10.608Z,101867.59
2017-07-08T21:36:38.565Z,101869.81
2017-07-08T21:39:06.495Z,101866.72
2017-07-08T21:41:34.448Z,101869.38
2017-07-08T21:44:02.365Z,101872.99
2017-07-08T21:46:30.297Z,101871.59
2017-07-08T21:48:58.234Z,101872.02
2017-07-08T21:51:26.158Z,101871.21
2017-07-08T21:53:54.106Z,101868.89
2017-07-08T21:56:22.070Z,101872.51
2017-07-08T21:58:50.215Z,101884.71
2017-07-08T22:01:18.186Z,101883.80
2017-07-08T22:03:46.113Z,101884.71
2017-07-08T22:06:14.047Z,101886.55
2017-07-08T22:08:41.985Z,101884.28
2017-07-08T22:11:09.907Z,101879.36
2017-07-08T22:13:37.871Z,101884.38
2017-07-08T22:16:05.795Z,101882.12
2017-07-08T22:18:33.742Z,101874.50
2017-07-08T22:21:01.674Z,101868.28
2017-07-08T22:23:29.647Z,101870.50
2017-07-08T22:25:57.593Z,101872.33
2017-07-08T22:28:25.550Z,101870.55
2017-07-08T22:30:53.486Z,101866.98
2017-07-08T22:33:21.425Z,101872.38
2017-07-08T22:35:49.354Z,101871.97
2017-07-08T22:38:17.307Z,101871.53
2017-07-08T22:40:45.258Z,101861.22
2017-07-08T22:43:13.191Z,101858.52
2017-07-08T22:45:41.119Z,101856.30
2017-07-08T22:48:09.047Z,101852.69
2017-07-08T22:50:37.003Z,101857.70
2017-07-08T22:53:04.928Z,101859.54
2017-07-08T22:55:32.906Z,101858.19
2017-07-08T22:58:00.842Z,101859.59
2017-07-08T23:00:28.974Z,101853.76
2017-07-08T23:02:56.970Z,101848.36
2017-07-08T23:05:24.902Z,101846.68
2017-07-08T23:07:52.829Z,101851.16
2017-07-08T23:10:20.771Z,101849.33
2017-07-08T23:12:48.715Z,101849.81
2017-07-08T23:15:16.667Z,101853.00
2017-07-08T23:17:44.599Z,101861.09
2017-07-08T23:20:12.522Z,101854.88
2017-07-08T23:22:40.456Z,101854.50
2017-07-08T23:25:08.921Z,101853.10
2017-07-08T23:27:36.864Z,101850.45
2017-07-08T23:30:04.788Z,101860.81
2017-07-08T23:32:32.738Z,101856.39
2017-07-08T23:35:00.691Z,101856.82
2017-07-08T23:37:28.611Z,101846.50
2017-07-08T23:39:56.546Z,101846.02
2017-07-08T23:42:24.461Z,101841.16
2017-07-08T23:44:52.399Z,101841.59
2017-07-08T23:47:20.331Z,101825.88
2017-07-08T23:49:48.258Z,101822.73
2017-07-08T23:52:16.217Z,101825.00
2017-07-08T23:54:44.165Z,101815.17
2017-07-08T23:57:12.113Z,101813.39
2017-07-08T23:59:40.049Z,101819.70
